Time;durP1;ratioP1;P1;durP2;ratioP2;P2;SDS_P1;SDS_P2;PMS_P1;PMS_P2;Temp;Humidity;BMP_temperature;BMP_pressure;BME280_temperature;BME280_humidity;BME280_pressure;Samples;Min_cycle;Max_cycle;Signal;HPM_P1;HPM_P2
2021/04/02 00:07:38;;;;;;;28.97;14.07;;;;;;;10.25;66.11;98312.16;469086;1196;103549;-41
2021/04/02 00:17:43;;;;;;;34.97;16.23;;;;;;;10.00;66.35;98318.51;468865;1196;103226;-41
2021/04/02 00:27:48;;;;;;;37.70;18.65;;;;;;;9.69;68.61;98332.08;468567;1196;103589;-41
2021/04/02 00:37:52;;;;;;;43.77;22.53;;;;;;;9.52;70.91;98337.27;468319;1196;103262;-41
2021/04/02 00:47:58;;;;;;;38.70;24.00;;;;;;;9.25;73.13;98351.95;468802;1196;103268;-41
2021/04/02 00:58:03;;;;;;;34.83;20.90;;;;;;;9.00;72.72;98339.75;468224;1196;103219;-40
2021/04/02 01:08:10;;;;;;;40.43;25.77;;;;;;;8.73;73.14;98360.39;468237;1196;103252;-41
2021/04/02 01:18:21;;;;;;;28.95;18.55;;;;;;;8.62;73.00;98350.63;470235;1162;103519;-41
2021/04/02 01:28:38;;;;;;;23.20;16.20;;;;;;;8.57;73.09;98361.84;468425;1196;103232;-41
2021/04/02 01:38:44;;;;;;;27.23;18.90;;;;;;;8.41;73.04;98369.55;469055;1196;103194;-41
2021/04/02 01:48:52;;;;;;;32.90;19.73;;;;;;;8.25;73.30;98349.84;468630;1196;103558;-41
2021/04/02 01:58:59;;;;;;;30.50;22.10;;;;;;;8.01;74.43;98341.81;469262;1196;103223;-42
2021/04/02 02:09:07;;;;;;;23.70;16.60;;;;;;;8.01;74.35;98341.81;469208;1196;103226;-42
2021/04/02 02:19:14;;;;;;;24.60;15.80;;;;;;;8.05;73.82;98365.90;469397;1196;103571;-40
2021/04/02 02:29:18;;;;;;;18.80;12.90;;;;;;;7.73;75.64;98382.82;469301;1196;103325;-41
2021/04/02 02:39:23;;;;;;;10.07;7.30;;;;;;;7.38;75.24;98409.64;468735;1196;103210;-41
2021/04/02 02:49:30;;;;;;;11.70;8.15;;;;;;;7.01;75.48;98427.88;468176;1196;103213;-42
2021/04/02 02:59:33;;;;;;;10.65;7.60;;;;;;;6.61;75.66;98450.91;468266;1196;103526;-41
2021/04/02 03:09:41;;;;;;;9.70;7.80;;;;;;;6.20;76.58;98464.39;468447;1196;103260;-42
2021/04/02 03:19:45;;;;;;;10.20;7.17;;;;;;;5.39;77.05;98488.19;469382;1196;103226;-42
2021/04/02 03:29:54;;;;;;;10.37;7.90;;;;;;;4.93;78.00;98509.05;468545;1196;103238;-40
2021/04/02 03:40:00;;;;;;;7.23;6.50;;;;;;;4.81;77.87;98500.95;468959;1196;103245;-43
2021/04/02 03:50:03;;;;;;;16.33;10.27;;;;;;;4.51;79.08;98533.66;468858;1196;103290;-43
2021/04/02 04:00:25;;;;;;;5.90;5.20;;;;;;;4.32;78.81;98548.23;468958;1196;103258;-40
2021/04/02 04:10:31;;;;;;;10.63;6.67;;;;;;;4.18;78.27;98568.25;468303;1195;103171;-40
2021/04/02 04:20:36;;;;;;;14.33;9.27;;;;;;;4.10;78.17;98571.02;468195;1195;103219;-40
2021/04/02 04:30:42;;;;;;;11.90;8.50;;;;;;;3.98;78.63;98590.83;468617;1196;104655;-40
2021/04/02 04:40:49;;;;;;;14.47;9.63;;;;;;;4.05;78.20;98578.64;468602;1196;103168;-41
2021/04/02 04:50:54;;;;;;;20.23;12.13;;;;;;;3.96;78.08;98574.52;468391;1196;103223;-40
2021/04/02 05:00:58;;;;;;;35.23;18.90;;;;;;;3.81;78.10;98574.61;468588;1196;103484;-42
2021/04/02 05:11:03;;;;;;;23.73;9.57;;;;;;;3.96;77.71;98567.48;468938;1196;104655;-38
2021/04/02 05:21:08;;;;;;;8.10;5.70;;;;;;;3.78;77.49;98571.53;468322;1196;103392;-39
2021/04/02 05:31:12;;;;;;;6.47;5.20;;;;;;;3.80;77.29;98574.80;468342;1196;103206;-40
2021/04/02 05:41:16;;;;;;;4.50;3.63;;;;;;;3.84;76.58;98583.88;468657;1196;103491;-39
2021/04/02 05:51:21;;;;;;;7.77;4.50;;;;;;;3.79;76.58;98578.41;468463;1196;103593;-41
2021/04/02 06:01:27;;;;;;;4.27;3.80;;;;;;;3.80;75.60;98611.41;468721;1196;104736;-40
2021/04/02 06:11:31;;;;;;;6.57;5.87;;;;;;;3.73;75.12;98613.13;468628;1195;103171;-40
2021/04/02 06:21:45;;;;;;;7.63;5.87;;;;;;;3.88;74.64;98640.05;468440;1196;103597;-41
2021/04/02 06:42:10;;;;;;;6.03;5.43;;;;;;;3.69;73.10;98662.38;468746;1196;103252;-41
2021/04/02 06:52:15;;;;;;;5.97;3.93;;;;;;;4.10;73.59;98659.98;468783;1196;103497;-41
2021/04/02 07:02:23;;;;;;;5.53;4.80;;;;;;;4.31;72.72;98672.27;468656;1195;103555;-40
2021/04/02 07:12:28;;;;;;;5.93;4.33;;;;;;;4.42;71.40;98670.92;468542;1194;103680;-41
2021/04/02 07:22:32;;;;;;;6.45;5.00;;;;;;;4.71;71.46;98668.13;468930;1196;103194;-40
2021/04/02 07:32:38;;;;;;;5.37;4.63;;;;;;;5.78;70.51;98676.33;468632;1196;103309;-41
2021/04/02 07:42:49;;;;;;;6.57;5.50;;;;;;;7.27;69.73;98675.95;468829;1196;103545;-41
2021/04/02 07:52:55;;;;;;;9.15;6.70;;;;;;;7.46;67.91;98677.70;469083;1196;103593;-41
2021/04/02 08:03:13;;;;;;;24.57;16.90;;;;;;;7.37;67.01;98690.30;468412;1195;103172;-43
2021/04/02 08:13:21;;;;;;;20.10;15.00;;;;;;;6.75;66.03;98688.98;468425;1195;103213;-41
2021/04/02 08:23:28;;;;;;;26.37;17.67;;;;;;;7.07;65.45;98689.14;468765;1196;103253;-42
2021/04/02 08:33:32;;;;;;;30.33;19.57;;;;;;;8.02;65.00;98684.92;468810;1196;103577;-40
2021/04/02 08:43:40;;;;;;;23.53;16.63;;;;;;;8.09;61.49;98690.17;468308;1196;103236;-40
2021/04/02 08:53:45;;;;;;;23.50;16.40;;;;;;;8.13;61.96;98678.19;468734;1196;103260;-41
2021/04/02 09:03:49;;;;;;;24.53;16.00;;;;;;;8.31;60.96;98678.28;469166;1196;103574;-43
2021/04/02 09:13:54;;;;;;;25.13;18.47;;;;;;;8.61;60.58;98666.10;468277;1196;103267;-40
2021/04/02 09:23:59;;;;;;;22.47;17.27;;;;;;;8.61;59.98;98667.93;468332;1195;103568;-41
2021/04/02 09:34:06;;;;;;;25.55;17.75;;;;;;;9.04;59.47;98670.58;468559;1196;103245;-41
2021/04/02 09:44:13;;;;;;;20.00;15.20;;;;;;;8.67;58.85;98671.53;468261;1196;103213;-41
2021/04/02 09:54:19;;;;;;;22.07;17.23;;;;;;;8.91;57.40;98658.31;468362;1196;103331;-41
2021/04/02 10:04:25;;;;;;;20.40;15.40;;;;;;;9.23;55.89;98656.38;468967;1196;103227;-41
2021/04/02 10:14:44;;;;;;;20.20;14.30;;;;;;;9.79;56.38;98639.43;468247;1196;103500;-40
2021/04/02 10:24:48;;;;;;;20.73;15.97;;;;;;;10.15;54.51;98624.48;468361;1196;103228;-41
2021/04/02 10:34:53;;;;;;;19.10;14.57;;;;;;;10.42;54.51;98623.08;468636;1195;104617;-39
2021/04/02 10:44:58;;;;;;;9.50;8.50;;;;;;;10.43;54.34;98614.12;468618;1196;103200;-40
2021/04/02 10:55:02;;;;;;;13.73;8.77;;;;;;;10.29;52.13;98599.50;468991;1196;103271;-41
2021/04/02 11:05:09;;;;;;;9.23;8.03;;;;;;;10.45;52.14;98604.12;468838;1196;103661;-41
2021/04/02 11:15:12;;;;;;;7.03;5.97;;;;;;;10.62;51.73;98593.64;468513;1196;103213;-41
2021/04/02 11:25:17;;;;;;;5.17;4.67;;;;;;;10.96;51.90;98564.75;468436;1196;103622;-41
2021/04/02 11:35:22;;;;;;;5.60;4.90;;;;;;;10.44;50.83;98573.43;468901;1196;103197;-40
2021/04/02 11:45:26;;;;;;;10.60;3.80;;;;;;;10.55;50.22;98552.49;468966;1196;103520;-41
2021/04/02 11:55:29;;;;;;;5.10;3.47;;;;;;;10.86;49.26;98541.52;468942;1196;103364;-41
2021/04/02 12:05:34;;;;;;;6.93;3.93;;;;;;;10.84;46.07;98548.89;469165;1196;104313;-40
2021/04/02 12:15:39;;;;;;;3.95;3.20;;;;;;;10.86;46.32;98533.59;468884;1196;104611;-41
2021/04/02 12:25:43;;;;;;;5.07;4.20;;;;;;;10.70;45.80;98516.62;468106;1196;103166;-42
2021/04/02 12:35:48;;;;;;;5.80;4.60;;;;;;;10.78;46.42;98506.70;468387;1196;103280;-42
2021/04/02 12:45:52;;;;;;;8.50;6.93;;;;;;;11.08;46.64;98489.58;468760;1195;103227;-40
2021/04/02 12:55:59;;;;;;;16.63;7.93;;;;;;;11.08;45.50;98478.99;468843;1196;103597;-42
2021/04/02 13:06:05;;;;;;;11.17;7.27;;;;;;;11.19;45.09;98474.71;468344;1196;103568;-41
2021/04/02 13:16:09;;;;;;;14.40;6.40;;;;;;;11.24;44.95;98460.76;468959;1196;103549;-42
2021/04/02 13:26:12;;;;;;;11.13;8.00;;;;;;;11.07;43.55;98455.42;468658;1196;103233;-41
2021/04/02 13:46:36;;;;;;;11.85;9.78;;;;;;;10.84;43.45;98443.09;468911;1196;103212;-41
2021/04/02 13:56:40;;;;;;;17.43;11.73;;;;;;;10.66;43.20;98435.35;468298;1196;103664;-41
2021/04/02 14:06:44;;;;;;;14.13;10.77;;;;;;;10.63;43.96;98417.28;468531;1196;103258;-41
2021/04/02 14:16:48;;;;;;;15.53;10.10;;;;;;;10.69;43.16;98411.88;468766;1196;103195;-41
2021/04/02 14:26:52;;;;;;;15.47;9.80;;;;;;;10.58;42.80;98399.48;468248;1196;103222;-41
2021/04/02 14:36:57;;;;;;;14.70;10.30;;;;;;;10.48;43.24;98398.50;468734;1196;103811;-42
2021/04/02 14:47:01;;;;;;;11.00;7.47;;;;;;;10.46;43.42;98393.45;468812;1196;103214;-41
2021/04/02 14:57:08;;;;;;;12.13;7.13;;;;;;;10.41;41.67;98390.71;468734;1196;103157;-41
2021/04/02 15:07:12;;;;;;;10.90;6.20;;;;;;;10.23;38.84;98388.22;468615;1196;103274;-42
2021/04/02 15:17:16;;;;;;;58.95;9.80;;;;;;;10.20;39.80;98392.10;468807;1195;103544;-41
2021/04/02 15:27:20;;;;;;;33.23;18.73;;;;;;;10.06;42.18;98396.02;469067;1196;103225;-43
2021/04/02 15:37:25;;;;;;;12.65;8.60;;;;;;;10.02;43.33;98385.11;468701;1196;103549;-41
2021/04/02 15:47:29;;;;;;;15.05;10.40;;;;;;;9.84;44.47;98364.91;468606;1196;104610;-41
2021/04/02 15:57:33;;;;;;;39.57;13.43;;;;;;;9.67;44.77;98371.91;468966;1195;103586;-41
2021/04/02 16:07:38;;;;;;;19.15;14.00;;;;;;;9.51;44.57;98367.34;468999;1196;103514;-42
2021/04/02 16:17:46;;;;;;;23.30;15.70;;;;;;;9.32;44.59;98363.19;468768;1196;103609;-41
2021/04/02 16:27:57;;;;;;;30.73;18.77;;;;;;;9.14;44.82;98358.80;469463;1196;103216;-43
2021/04/02 16:38:01;;;;;;;33.37;22.70;;;;;;;8.96;44.99;98357.03;468829;1196;103203;-41
2021/04/02 16:48:06;;;;;;;27.80;17.33;;;;;;;8.72;45.67;98350.88;468654;1196;103334;-41
2021/04/02 16:58:26;;;;;;;34.20;19.97;;;;;;;8.49;46.05;98354.23;468900;1196;103583;-41
2021/04/02 17:08:32;;;;;;;27.17;18.37;;;;;;;8.20;46.59;98350.52;468356;1196;103568;-44
2021/04/02 17:18:37;;;;;;;53.13;32.73;;;;;;;7.91;47.23;98341.53;468282;1196;103699;-41
2021/04/02 17:28:41;;;;;;;41.75;25.35;;;;;;;7.62;47.83;98342.25;468816;1196;104646;-42
2021/04/02 17:38:45;;;;;;;101.93;28.83;;;;;;;7.28;48.31;98341.73;469114;1196;103607;-40
2021/04/02 17:48:50;;;;;;;38.00;20.63;;;;;;;6.98;48.65;98348.64;468866;1196;103232;-41
2021/04/02 17:58:54;;;;;;;57.80;27.75;;;;;;;6.63;49.43;98359.59;468212;1196;103510;-41
2021/04/02 18:08:58;;;;;;;48.80;28.43;;;;;;;6.29;49.79;98366.00;469177;1196;104757;-41
2021/04/02 18:19:02;;;;;;;55.13;31.83;;;;;;;5.95;50.20;98361.89;468809;1196;103571;-41
2021/04/02 18:29:07;;;;;;;66.73;36.13;;;;;;;5.68;50.88;98350.63;468504;1196;103516;-40
2021/04/02 18:39:12;;;;;;;94.05;46.00;;;;;;;5.42;51.29;98319.97;468334;1196;103491;-41
2021/04/02 18:49:16;;;;;;;80.90;40.75;;;;;;;5.35;51.67;98329.67;468825;1196;103216;-42
2021/04/02 18:59:21;;;;;;;87.55;41.60;;;;;;;4.90;52.44;98342.57;468145;1196;103215;-41
2021/04/02 19:09:25;;;;;;;86.27;44.23;;;;;;;4.74;53.34;98336.92;468215;1196;103229;-41
2021/04/02 19:19:33;;;;;;;79.07;38.03;;;;;;;4.61;54.07;98346.36;468364;1196;103145;-41
2021/04/02 19:29:38;;;;;;;68.05;36.15;;;;;;;4.50;54.04;98356.61;468705;1196;103267;-41
2021/04/02 19:39:42;;;;;;;59.60;29.07;;;;;;;4.49;54.89;98357.59;469193;1196;103606;-43
2021/04/02 19:49:46;;;;;;;131.10;61.60;;;;;;;4.59;55.26;98358.04;468258;1196;103252;-41
2021/04/02 19:59:54;;;;;;;153.63;65.80;;;;;;;4.59;55.41;98329.23;468573;1196;103574;-41
2021/04/02 20:09:58;;;;;;;135.10;61.20;;;;;;;4.71;56.15;98321.58;468249;1196;103577;-40
2021/04/02 20:20:04;;;;;;;137.40;63.17;;;;;;;4.63;56.42;98304.26;468439;1196;103213;-41
2021/04/02 20:30:14;;;;;;;165.80;71.70;;;;;;;4.58;56.98;98312.72;468947;1196;103236;-42
2021/04/02 20:40:18;;;;;;;132.40;58.85;;;;;;;4.34;56.71;98318.50;468940;1196;103223;-41
2021/04/02 20:50:23;;;;;;;95.63;45.87;;;;;;;4.37;57.53;98328.57;468387;1196;103236;-42
2021/04/02 21:00:29;;;;;;;123.87;54.50;;;;;;;4.36;57.76;98339.24;468713;1196;103337;-42
2021/04/02 21:10:33;;;;;;;137.60;59.20;;;;;;;4.24;58.01;98331.13;468413;1196;103213;-41
2021/04/02 21:20:38;;;;;;;123.67;54.13;;;;;;;4.05;57.89;98317.00;468283;1196;103667;-40
2021/04/02 21:30:45;;;;;;;68.73;35.07;;;;;;;3.97;58.10;98312.72;468227;1196;103232;-41
2021/04/02 21:40:49;;;;;;;61.70;29.80;;;;;;;3.91;58.42;98310.09;469399;1196;103203;-41
2021/04/02 21:50:53;;;;;;;77.50;34.83;;;;;;;3.86;59.04;98294.98;468432;1196;103571;-41
2021/04/02 22:00:57;;;;;;;56.17;28.90;;;;;;;3.90;58.86;98296.20;468325;1196;103281;-41
2021/04/02 22:11:02;;;;;;;86.10;38.10;;;;;;;4.07;59.31;98282.79;468950;1196;103222;-43
2021/04/02 22:21:07;;;;;;;128.63;55.90;;;;;;;4.24;59.68;98290.06;468250;1196;103213;-42
2021/04/02 22:31:14;;;;;;;91.33;42.90;;;;;;;4.24;59.57;98291.88;468757;1196;103177;-41
2021/04/02 22:41:19;;;;;;;65.47;31.83;;;;;;;4.27;59.49;98291.51;468728;1196;103270;-41
2021/04/02 22:51:24;;;;;;;66.70;33.70;;;;;;;4.30;59.73;98278.83;468744;1195;103628;-41
2021/04/02 23:01:28;;;;;;;79.40;36.50;;;;;;;4.22;59.75;98276.38;468543;1196;103555;-41
2021/04/02 23:11:33;;;;;;;66.35;32.60;;;;;;;4.12;60.49;98270.72;468893;1196;103631;-41
2021/04/02 23:21:38;;;;;;;51.20;25.30;;;;;;;4.13;60.04;98259.25;469264;1196;104576;-41
2021/04/02 23:31:43;;;;;;;58.80;27.83;;;;;;;4.08;59.95;98248.58;468781;1196;103331;-42
2021/04/02 23:41:47;;;;;;;41.75;22.40;;;;;;;3.95;60.27;98251.14;468783;1196;103571;-43
2021/04/02 23:51:51;;;;;;;52.37;23.47;;;;;;;4.02;61.19;98251.95;468423;1196;103723;-41
